sensor_id;sensor_type;location;lat;lon;timestamp;pressure;altitude;pressure_sealevel;temperature;humidity
9439;BME280;5176;42.622;25.386;2023-05-07T00:00:06;97481.81;;;15.58;83.15
9439;BME280;5176;42.622;25.386;2023-05-07T00:02:36;97485.81;;;15.52;82.12
9439;BME280;5176;42.622;25.386;2023-05-07T00:05:06;97485.94;;;15.39;81.17
9439;BME280;5176;42.622;25.386;2023-05-07T00:07:35;97482.47;;;15.27;81.06
9439;BME280;5176;42.622;25.386;2023-05-07T00:10:05;97484.03;;;15.19;81.13
9439;BME280;5176;42.622;25.386;2023-05-07T00:12:36;97481.50;;;15.06;81.28
9439;BME280;5176;42.622;25.386;2023-05-07T00:15:06;97484.97;;;14.95;81.78
9439;BME280;5176;42.622;25.386;2023-05-07T00:17:35;97490.72;;;14.89;80.72
9439;BME280;5176;42.622;25.386;2023-05-07T00:20:06;97500.19;;;14.81;81.47
9439;BME280;5176;42.622;25.386;2023-05-07T00:22:35;97489.03;;;14.66;82.18
9439;BME280;5176;42.622;25.386;2023-05-07T00:25:05;97490.41;;;14.48;83.25
9439;BME280;5176;42.622;25.386;2023-05-07T00:27:36;97487.94;;;14.33;84.33
9439;BME280;5176;42.622;25.386;2023-05-07T00:30:06;97487.91;;;14.22;85.23
9439;BME280;5176;42.622;25.386;2023-05-07T00:32:34;97490.72;;;14.08;86.02
9439;BME280;5176;42.622;25.386;2023-05-07T00:35:04;97484.53;;;13.96;86.86
9439;BME280;5176;42.622;25.386;2023-05-07T00:37:33;97488.00;;;13.85;88.36
9439;BME280;5176;42.622;25.386;2023-05-07T00:40:03;97485.91;;;13.78;89.44
9439;BME280;5176;42.622;25.386;2023-05-07T00:42:35;97482.22;;;13.80;89.43
9439;BME280;5176;42.622;25.386;2023-05-07T00:45:06;97479.97;;;13.87;89.00
9439;BME280;5176;42.622;25.386;2023-05-07T00:47:36;97481.06;;;13.96;88.48
9439;BME280;5176;42.622;25.386;2023-05-07T00:50:05;97485.06;;;14.01;87.71
9439;BME280;5176;42.622;25.386;2023-05-07T00:52:35;97488.78;;;13.99;86.97
9439;BME280;5176;42.622;25.386;2023-05-07T00:55:06;97480.88;;;13.99;87.36
9439;BME280;5176;42.622;25.386;2023-05-07T00:57:40;97484.22;;;14.01;86.71
9439;BME280;5176;42.622;25.386;2023-05-07T01:00:08;97486.13;;;13.99;86.79
9439;BME280;5176;42.622;25.386;2023-05-07T01:02:39;97491.09;;;13.90;86.68
9439;BME280;5176;42.622;25.386;2023-05-07T01:05:10;97489.94;;;13.95;86.34
9439;BME280;5176;42.622;25.386;2023-05-07T01:07:42;97490.56;;;13.98;85.67
9439;BME280;5176;42.622;25.386;2023-05-07T01:10:11;97483.00;;;13.94;85.84
9439;BME280;5176;42.622;25.386;2023-05-07T01:12:43;97481.06;;;13.96;86.04
9439;BME280;5176;42.622;25.386;2023-05-07T01:15:14;97480.13;;;13.97;84.43
9439;BME280;5176;42.622;25.386;2023-05-07T01:17:44;97486.34;;;13.96;83.61
9439;BME280;5176;42.622;25.386;2023-05-07T01:20:12;97478.16;;;13.87;84.15
9439;BME280;5176;42.622;25.386;2023-05-07T01:22:44;97483.31;;;13.89;83.64
9439;BME280;5176;42.622;25.386;2023-05-07T01:25:13;97477.31;;;13.87;82.43
9439;BME280;5176;42.622;25.386;2023-05-07T01:27:43;97485.22;;;13.87;82.35
9439;BME280;5176;42.622;25.386;2023-05-07T01:30:12;97478.63;;;13.81;82.19
9439;BME280;5176;42.622;25.386;2023-05-07T01:32:43;97489.06;;;13.70;82.15
9439;BME280;5176;42.622;25.386;2023-05-07T01:35:18;97481.97;;;13.59;82.91
9439;BME280;5176;42.622;25.386;2023-05-07T01:37:49;97476.50;;;13.50;83.74
9439;BME280;5176;42.622;25.386;2023-05-07T01:40:19;97482.97;;;13.46;83.80
9439;BME280;5176;42.622;25.386;2023-05-07T01:42:48;97480.75;;;13.40;83.09
9439;BME280;5176;42.622;25.386;2023-05-07T01:45:17;97479.00;;;13.27;84.55
9439;BME280;5176;42.622;25.386;2023-05-07T01:47:46;97478.25;;;13.13;85.75
9439;BME280;5176;42.622;25.386;2023-05-07T01:50:16;97476.78;;;12.96;88.76
9439;BME280;5176;42.622;25.386;2023-05-07T01:52:46;97471.75;;;12.93;89.30
9439;BME280;5176;42.622;25.386;2023-05-07T01:55:17;97483.53;;;12.87;90.05
9439;BME280;5176;42.622;25.386;2023-05-07T01:57:46;97476.81;;;12.83;90.63
9439;BME280;5176;42.622;25.386;2023-05-07T02:00:15;97471.66;;;12.81;90.93
9439;BME280;5176;42.622;25.386;2023-05-07T02:02:44;97469.97;;;12.80;92.46
9439;BME280;5176;42.622;25.386;2023-05-07T02:05:13;97463.75;;;12.81;93.83
9439;BME280;5176;42.622;25.386;2023-05-07T02:07:42;97459.13;;;12.85;93.97
9439;BME280;5176;42.622;25.386;2023-05-07T02:10:11;97461.66;;;12.87;94.84
9439;BME280;5176;42.622;25.386;2023-05-07T02:12:42;97467.34;;;12.80;95.06
9439;BME280;5176;42.622;25.386;2023-05-07T02:15:11;97459.34;;;12.82;94.95
9439;BME280;5176;42.622;25.386;2023-05-07T02:17:58;97461.13;;;12.81;95.60
9439;BME280;5176;42.622;25.386;2023-05-07T02:20:28;97455.34;;;12.76;95.44
9439;BME280;5176;42.622;25.386;2023-05-07T02:22:57;97459.03;;;12.74;95.29
9439;BME280;5176;42.622;25.386;2023-05-07T02:25:27;97458.09;;;12.62;96.09
9439;BME280;5176;42.622;25.386;2023-05-07T02:27:58;97454.91;;;12.57;96.92
9439;BME280;5176;42.622;25.386;2023-05-07T02:30:26;97449.03;;;12.53;97.11
9439;BME280;5176;42.622;25.386;2023-05-07T02:32:55;97451.66;;;12.53;97.33
9439;BME280;5176;42.622;25.386;2023-05-07T02:35:24;97454.41;;;12.52;97.33
9439;BME280;5176;42.622;25.386;2023-05-07T02:37:53;97449.69;;;12.44;97.61
9439;BME280;5176;42.622;25.386;2023-05-07T02:40:22;97436.53;;;12.32;98.41
9439;BME280;5176;42.622;25.386;2023-05-07T02:42:51;97435.28;;;12.37;98.30
9439;BME280;5176;42.622;25.386;2023-05-07T02:45:21;97435.88;;;12.41;98.28
9439;BME280;5176;42.622;25.386;2023-05-07T02:47:51;97428.53;;;12.46;96.72
9439;BME280;5176;42.622;25.386;2023-05-07T02:50:20;97437.03;;;12.49;96.06
9439;BME280;5176;42.622;25.386;2023-05-07T02:52:49;97436.59;;;12.30;95.94
9439;BME280;5176;42.622;25.386;2023-05-07T02:55:17;97442.19;;;12.25;96.02
9439;BME280;5176;42.622;25.386;2023-05-07T02:57:46;97444.06;;;12.11;97.06
9439;BME280;5176;42.622;25.386;2023-05-07T03:00:17;97438.38;;;12.04;97.37
9439;BME280;5176;42.622;25.386;2023-05-07T03:02:47;97440.25;;;12.02;98.37
9439;BME280;5176;42.622;25.386;2023-05-07T03:05:17;97435.41;;;12.09;98.44
9439;BME280;5176;42.622;25.386;2023-05-07T03:07:45;97443.13;;;12.12;97.27
9439;BME280;5176;42.622;25.386;2023-05-07T03:10:15;97430.81;;;12.12;97.09
9439;BME280;5176;42.622;25.386;2023-05-07T03:12:44;97439.97;;;12.19;96.06
9439;BME280;5176;42.622;25.386;2023-05-07T03:15:14;97436.63;;;12.17;96.30
9439;BME280;5176;42.622;25.386;2023-05-07T03:17:43;97439.31;;;12.16;96.31
9439;BME280;5176;42.622;25.386;2023-05-07T03:20:15;97432.81;;;12.21;96.04
9439;BME280;5176;42.622;25.386;2023-05-07T03:22:44;97444.81;;;12.25;95.94
9439;BME280;5176;42.622;25.386;2023-05-07T03:25:13;97436.72;;;12.28;95.67
9439;BME280;5176;42.622;25.386;2023-05-07T03:27:42;97448.41;;;12.37;94.46
9439;BME280;5176;42.622;25.386;2023-05-07T03:30:12;97440.06;;;12.43;93.94
9439;BME280;5176;42.622;25.386;2023-05-07T03:32:41;97450.53;;;12.45;93.16
9439;BME280;5176;42.622;25.386;2023-05-07T03:35:09;97447.88;;;12.45;93.65
9439;BME280;5176;42.622;25.386;2023-05-07T03:37:40;97447.66;;;12.48;93.11
9439;BME280;5176;42.622;25.386;2023-05-07T03:40:09;97446.63;;;12.50;93.04
9439;BME280;5176;42.622;25.386;2023-05-07T03:42:39;97442.22;;;12.51;93.50
9439;BME280;5176;42.622;25.386;2023-05-07T03:45:08;97446.81;;;12.47;93.93
9439;BME280;5176;42.622;25.386;2023-05-07T03:47:37;97455.66;;;12.46;93.63
9439;BME280;5176;42.622;25.386;2023-05-07T03:50:06;97452.50;;;12.41;93.99
9439;BME280;5176;42.622;25.386;2023-05-07T03:52:35;97456.38;;;12.36;95.47
9439;BME280;5176;42.622;25.386;2023-05-07T03:55:06;97450.69;;;12.29;95.26
9439;BME280;5176;42.622;25.386;2023-05-07T03:57:35;97454.16;;;12.30;95.89
9439;BME280;5176;42.622;25.386;2023-05-07T04:00:03;97457.22;;;12.36;97.17
9439;BME280;5176;42.622;25.386;2023-05-07T04:02:33;97453.22;;;12.43;100.00
9439;BME280;5176;42.622;25.386;2023-05-07T04:05:02;97457.13;;;12.38;100.00
9439;BME280;5176;42.622;25.386;2023-05-07T04:07:30;97460.25;;;12.17;100.00
9439;BME280;5176;42.622;25.386;2023-05-07T04:10:00;97460.03;;;12.20;100.00
9439;BME280;5176;42.622;25.386;2023-05-07T04:12:31;97455.66;;;12.34;100.00
9439;BME280;5176;42.622;25.386;2023-05-07T04:14:59;97456.31;;;12.37;100.00
9439;BME280;5176;42.622;25.386;2023-05-07T04:17:28;97460.91;;;12.46;100.00
9439;BME280;5176;42.622;25.386;2023-05-07T04:19:56;97462.91;;;12.55;100.00
9439;BME280;5176;42.622;25.386;2023-05-07T04:22:25;97465.97;;;12.62;100.00
9439;BME280;5176;42.622;25.386;2023-05-07T04:24:54;97461.13;;;12.69;100.00
9439;BME280;5176;42.622;25.386;2023-05-07T04:27:23;97469.13;;;12.80;99.82
9439;BME280;5176;42.622;25.386;2023-05-07T04:29:54;97466.50;;;12.93;98.44
9439;BME280;5176;42.622;25.386;2023-05-07T04:32:22;97467.31;;;13.06;97.50
9439;BME280;5176;42.622;25.386;2023-05-07T04:34:51;97474.69;;;13.14;99.11
9439;BME280;5176;42.622;25.386;2023-05-07T04:37:21;97476.03;;;13.19;100.00
9439;BME280;5176;42.622;25.386;2023-05-07T04:39:50;97463.53;;;13.23;100.00
9439;BME280;5176;42.622;25.386;2023-05-07T04:42:19;97469.09;;;13.31;99.51
9439;BME280;5176;42.622;25.386;2023-05-07T04:44:47;97476.34;;;13.40;100.00
9439;BME280;5176;42.622;25.386;2023-05-07T04:47:23;97477.13;;;13.53;100.00
9439;BME280;5176;42.622;25.386;2023-05-07T04:49:52;97477.09;;;13.66;99.58
9439;BME280;5176;42.622;25.386;2023-05-07T04:52:20;97480.84;;;13.75;99.68
9439;BME280;5176;42.622;25.386;2023-05-07T04:54:49;97482.09;;;13.82;99.78
9439;BME280;5176;42.622;25.386;2023-05-07T04:57:18;97484.06;;;13.91;98.48
9439;BME280;5176;42.622;25.386;2023-05-07T04:59:47;97481.19;;;13.94;98.91
9439;BME280;5176;42.622;25.386;2023-05-07T05:02:15;97482.09;;;14.06;97.70
9439;BME280;5176;42.622;25.386;2023-05-07T05:04:46;97486.06;;;14.11;97.13
9439;BME280;5176;42.622;25.386;2023-05-07T05:07:15;97483.47;;;14.23;97.17
9439;BME280;5176;42.622;25.386;2023-05-07T05:09:44;97482.78;;;14.32;96.32
9439;BME280;5176;42.622;25.386;2023-05-07T05:12:13;97486.28;;;14.43;96.78
9439;BME280;5176;42.622;25.386;2023-05-07T05:14:42;97492.34;;;14.57;95.33
9439;BME280;5176;42.622;25.386;2023-05-07T05:17:10;97481.44;;;14.61;94.16
9439;BME280;5176;42.622;25.386;2023-05-07T05:19:39;97494.78;;;14.71;94.46
9439;BME280;5176;42.622;25.386;2023-05-07T05:22:10;97491.31;;;14.82;93.27
9439;BME280;5176;42.622;25.386;2023-05-07T05:24:39;97491.94;;;14.96;93.61
9439;BME280;5176;42.622;25.386;2023-05-07T05:27:08;97488.22;;;15.10;92.96
9439;BME280;5176;42.622;25.386;2023-05-07T05:29:37;97500.81;;;15.18;91.02
9439;BME280;5176;42.622;25.386;2023-05-07T05:32:06;97496.75;;;15.25;89.50
9439;BME280;5176;42.622;25.386;2023-05-07T05:34:34;97500.69;;;15.31;87.11
9439;BME280;5176;42.622;25.386;2023-05-07T05:37:03;97501.88;;;15.49;86.05
9439;BME280;5176;42.622;25.386;2023-05-07T05:39:33;97508.63;;;15.53;84.69
9439;BME280;5176;42.622;25.386;2023-05-07T05:42:03;97500.59;;;15.66;85.10
9439;BME280;5176;42.622;25.386;2023-05-07T05:44:32;97500.53;;;15.77;85.93
9439;BME280;5176;42.622;25.386;2023-05-07T05:47:00;97502.53;;;15.96;84.68
9439;BME280;5176;42.622;25.386;2023-05-07T05:49:29;97506.81;;;16.19;84.15
9439;BME280;5176;42.622;25.386;2023-05-07T05:51:57;97509.72;;;16.37;81.12
9439;BME280;5176;42.622;25.386;2023-05-07T05:54:27;97508.25;;;16.44;79.93
9439;BME280;5176;42.622;25.386;2023-05-07T05:56:58;97508.69;;;16.49;78.93
9439;BME280;5176;42.622;25.386;2023-05-07T05:59:27;97515.63;;;16.61;78.81
9439;BME280;5176;42.622;25.386;2023-05-07T06:01:57;97512.13;;;16.72;78.66
9439;BME280;5176;42.622;25.386;2023-05-07T06:04:26;97507.19;;;16.88;78.62
9439;BME280;5176;42.622;25.386;2023-05-07T06:06:54;97507.44;;;17.06;76.89
9439;BME280;5176;42.622;25.386;2023-05-07T06:09:24;97508.31;;;17.16;76.48
9439;BME280;5176;42.622;25.386;2023-05-07T06:11:52;97510.66;;;17.40;75.03
